createdAt,value
2023-05-12T00:00:17.051Z,57.74
2023-05-12T00:01:16.931Z,59.80
2023-05-12T00:02:16.973Z,56.41
2023-05-12T00:03:16.968Z,56.40
2023-05-12T00:04:16.910Z,56.99
2023-05-12T00:05:16.913Z,60.35
2023-05-12T00:06:16.897Z,59.97
2023-05-12T00:07:16.866Z,58.93
2023-05-12T00:08:16.931Z,63.02
2023-05-12T00:09:16.866Z,58.44
2023-05-12T00:10:16.870Z,55.05
2023-05-12T00:11:16.842Z,54.39
2023-05-12T00:12:16.844Z,61.72
2023-05-12T00:13:16.834Z,58.27
2023-05-12T00:14:17.857Z,60.12
2023-05-12T00:15:16.812Z,61.31
2023-05-12T00:16:16.826Z,63.30
2023-05-12T00:17:16.828Z,56.05
2023-05-12T00:18:16.789Z,57.06
2023-05-12T00:19:17.309Z,60.66
2023-05-12T00:20:16.933Z,61.33
2023-05-12T00:21:16.797Z,56.32
2023-05-12T00:22:16.762Z,62.79
2023-05-12T00:23:16.754Z,56.44
2023-05-12T00:24:16.758Z,56.73
2023-05-12T00:25:16.779Z,56.24
2023-05-12T00:26:16.751Z,65.89
2023-05-12T00:27:16.754Z,57.00
2023-05-12T00:28:16.726Z,57.08
2023-05-12T00:29:17.712Z,56.11
2023-05-12T00:30:16.786Z,62.26
2023-05-12T00:31:16.790Z,65.89
2023-05-12T00:32:16.698Z,60.78
2023-05-12T00:33:16.692Z,60.71
2023-05-12T00:34:16.723Z,60.75
2023-05-12T00:35:16.692Z,56.45
2023-05-12T00:36:16.749Z,67.88
2023-05-12T00:37:16.685Z,60.74
2023-05-12T00:38:16.656Z,59.66
2023-05-12T00:39:16.654Z,63.24
2023-05-12T00:40:16.754Z,68.53
2023-05-12T00:41:16.642Z,68.31
2023-05-12T00:42:16.672Z,62.95
2023-05-12T00:43:16.634Z,59.95
2023-05-12T00:44:16.662Z,55.07
2023-05-12T00:45:16.624Z,62.47
2023-05-12T00:46:16.626Z,59.65
2023-05-12T00:47:16.656Z,53.89
2023-05-12T00:48:16.602Z,54.74
2023-05-12T00:49:16.697Z,57.23
2023-05-12T00:50:16.628Z,60.76
2023-05-12T00:51:16.587Z,63.33
2023-05-12T00:52:16.596Z,55.48
2023-05-12T00:53:16.573Z,55.74
2023-05-12T00:54:16.592Z,60.27
2023-05-12T00:55:16.607Z,58.99
2023-05-12T00:56:16.572Z,62.87
2023-05-12T00:57:16.536Z,63.31
2023-05-12T00:58:16.607Z,58.91
2023-05-12T00:59:16.572Z,66.25
2023-05-12T01:00:16.549Z,60.47
2023-05-12T01:01:16.650Z,64.54
2023-05-12T01:02:16.558Z,57.95
2023-05-12T01:03:16.568Z,54.78
2023-05-12T01:04:16.528Z,55.45
2023-05-12T01:05:16.496Z,61.19
2023-05-12T01:06:16.518Z,67.13
2023-05-12T01:07:16.499Z,55.06
2023-05-12T01:08:16.471Z,60.97
2023-05-12T01:09:16.500Z,57.63
2023-05-12T01:10:16.517Z,66.78
2023-05-12T01:11:16.480Z,56.01
2023-05-12T01:12:16.448Z,55.22
2023-05-12T01:13:16.472Z,55.35
2023-05-12T01:14:16.460Z,58.13
2023-05-12T01:15:16.433Z,66.69
2023-05-12T01:16:16.457Z,63.77
2023-05-12T01:17:16.453Z,57.04
2023-05-12T01:18:16.439Z,53.79
2023-05-12T01:19:16.540Z,59.93
2023-05-12T01:20:16.439Z,53.95
2023-05-12T01:21:16.400Z,53.56
2023-05-12T01:22:16.384Z,64.46
2023-05-12T01:23:16.377Z,53.82
2023-05-12T01:24:16.390Z,53.43
2023-05-12T01:25:16.422Z,62.90
2023-05-12T01:26:16.353Z,54.62
2023-05-12T01:27:16.355Z,57.48
2023-05-12T01:28:16.341Z,60.58
2023-05-12T01:29:16.339Z,62.30
2023-05-12T01:30:16.376Z,59.80
2023-05-12T01:31:16.792Z,53.19
2023-05-12T01:32:16.327Z,52.84
2023-05-12T01:33:16.299Z,58.37
2023-05-12T01:34:16.369Z,67.39
2023-05-12T01:35:16.305Z,53.86
2023-05-12T01:36:16.366Z,59.49
2023-05-12T01:37:16.302Z,64.60
2023-05-12T01:38:16.319Z,68.85
2023-05-12T01:39:16.255Z,56.27
2023-05-12T01:40:16.303Z,54.72
2023-05-12T01:41:16.274Z,52.96
2023-05-12T01:42:16.244Z,57.49
2023-05-12T01:43:16.261Z,58.31
2023-05-12T01:44:16.283Z,53.15
2023-05-12T01:45:16.241Z,59.76
2023-05-12T01:46:16.316Z,57.32
2023-05-12T01:47:16.248Z,54.03
2023-05-12T01:48:16.240Z,60.80
2023-05-12T01:49:16.187Z,63.21
2023-05-12T01:50:16.208Z,56.98
2023-05-12T01:51:16.184Z,58.59
2023-05-12T01:52:16.227Z,53.68
2023-05-12T01:53:16.181Z,65.62
2023-05-12T01:54:16.187Z,52.84
2023-05-12T01:55:16.168Z,52.84
2023-05-12T01:56:16.165Z,67.34
2023-05-12T01:57:16.169Z,53.26
2023-05-12T01:58:16.147Z,62.08
2023-05-12T01:59:16.158Z,54.50
2023-05-12T02:00:16.122Z,58.91
2023-05-12T02:01:16.183Z,53.69
2023-05-12T02:02:16.248Z,53.94
2023-05-12T02:03:16.149Z,58.47
2023-05-12T02:04:16.376Z,53.41
2023-05-12T02:05:16.091Z,58.80
2023-05-12T02:06:16.142Z,57.19
2023-05-12T02:07:16.079Z,70.17
2023-05-12T02:08:16.176Z,55.97
2023-05-12T02:09:16.100Z,61.17
2023-05-12T02:10:16.102Z,60.69
2023-05-12T02:11:16.060Z,54.26
2023-05-12T02:12:16.073Z,63.68
2023-05-12T02:13:16.147Z,55.08
2023-05-12T02:14:16.026Z,59.62
2023-05-12T02:15:16.034Z,56.35
2023-05-12T02:16:16.016Z,64.44
2023-05-12T02:17:16.080Z,59.82
2023-05-12T02:18:16.057Z,63.84
2023-05-12T02:19:15.993Z,56.54
2023-05-12T02:20:15.988Z,59.24
2023-05-12T02:21:16.042Z,54.93
2023-05-12T02:22:15.996Z,57.11
2023-05-12T02:23:16.010Z,55.62
2023-05-12T02:24:16.005Z,54.34
2023-05-12T02:25:16.097Z,56.69
2023-05-12T02:26:16.724Z,60.24
2023-05-12T02:27:15.958Z,55.16
2023-05-12T02:28:15.973Z,69.15
2023-05-12T02:29:15.927Z,57.26
2023-05-12T02:30:15.948Z,65.31
2023-05-12T02:31:15.929Z,68.59
2023-05-12T02:32:15.935Z,71.77
2023-05-12T02:33:15.924Z,57.47
2023-05-12T02:34:15.901Z,59.90
2023-05-12T02:35:15.911Z,65.57
2023-05-12T02:36:15.909Z,57.84
2023-05-12T02:37:15.944Z,55.71
2023-05-12T02:38:15.899Z,59.65
2023-05-12T02:39:15.907Z,61.71
2023-05-12T02:40:15.870Z,64.55
2023-05-12T02:41:15.828Z,58.15
2023-05-12T02:42:15.854Z,63.10
2023-05-12T02:43:15.831Z,58.79
2023-05-12T02:44:15.880Z,60.18
2023-05-12T02:45:15.898Z,62.59
2023-05-12T02:46:16.926Z,60.36
2023-05-12T02:47:15.837Z,64.66
2023-05-12T02:48:15.822Z,67.10
2023-05-12T02:49:15.808Z,65.40
2023-05-12T02:50:15.798Z,67.65
2023-05-12T02:51:15.802Z,68.65
2023-05-12T02:52:15.774Z,64.89
2023-05-12T02:53:15.803Z,61.03
2023-05-12T02:54:16.789Z,72.73
2023-05-12T02:55:15.770Z,62.99
2023-05-12T02:56:15.776Z,63.38
2023-05-12T02:57:15.732Z,68.49
2023-05-12T02:58:15.780Z,66.54
2023-05-12T02:59:15.740Z,60.70
2023-05-12T03:00:15.739Z,65.71
2023-05-12T03:01:15.752Z,64.13
2023-05-12T03:02:15.760Z,62.14
2023-05-12T03:03:15.915Z,68.55
2023-05-12T03:04:15.727Z,67.86
2023-05-12T03:05:15.721Z,68.10
2023-05-12T03:06:15.696Z,66.97
2023-05-12T03:07:15.727Z,65.89
2023-05-12T03:08:15.683Z,61.86
2023-05-12T03:09:15.699Z,60.91
2023-05-12T03:10:15.667Z,67.30
2023-05-12T03:11:15.663Z,67.51
2023-05-12T03:12:15.664Z,67.26
2023-05-12T03:13:15.640Z,66.19
2023-05-12T03:14:15.640Z,71.70
2023-05-12T03:15:15.627Z,64.38
2023-05-12T03:16:16.474Z,66.87
2023-05-12T03:17:15.755Z,68.08
2023-05-12T03:18:15.595Z,67.85
2023-05-12T03:19:15.620Z,66.38
2023-05-12T03:20:15.576Z,72.81
2023-05-12T03:21:15.590Z,67.55
2023-05-12T03:22:15.647Z,71.29
2023-05-12T03:23:15.580Z,72.38
2023-05-12T03:24:15.572Z,69.55
2023-05-12T03:25:15.559Z,68.92
2023-05-12T03:26:15.594Z,71.65
2023-05-12T03:27:15.650Z,63.38
2023-05-12T03:28:15.534Z,60.86
2023-05-12T03:29:15.558Z,69.69
2023-05-12T03:30:15.508Z,67.93
2023-05-12T03:31:15.572Z,70.79
2023-05-12T03:32:15.520Z,68.17
2023-05-12T03:33:15.552Z,72.74
2023-05-12T03:34:15.493Z,74.47
2023-05-12T03:35:15.503Z,65.63
2023-05-12T03:36:15.496Z,67.84
2023-05-12T03:37:15.528Z,72.93
2023-05-12T03:38:15.520Z,68.77
2023-05-12T03:39:15.475Z,73.06
2023-05-12T03:40:15.512Z,70.15
2023-05-12T03:41:15.478Z,66.56
2023-05-12T03:42:15.486Z,75.00
2023-05-12T03:43:15.491Z,68.86
2023-05-12T03:44:15.496Z,71.61
2023-05-12T03:45:15.484Z,70.90
2023-05-12T03:46:15.577Z,68.57
2023-05-12T03:47:15.438Z,70.17
2023-05-12T03:48:15.478Z,65.39
2023-05-12T03:49:15.410Z,64.57
2023-05-12T03:50:15.470Z,71.45
2023-05-12T03:51:15.404Z,73.78
2023-05-12T03:52:15.392Z,75.42
2023-05-12T03:53:15.414Z,69.04
2023-05-12T03:54:15.366Z,68.78
2023-05-12T03:55:15.387Z,74.20
2023-05-12T03:56:15.353Z,70.89
2023-05-12T03:57:15.350Z,71.45
2023-05-12T03:58:15.369Z,70.92
2023-05-12T03:59:15.328Z,71.30
2023-05-12T04:00:15.342Z,67.22
2023-05-12T04:01:49.027Z,72.86
2023-05-12T04:02:15.462Z,70.96
2023-05-12T04:03:15.470Z,67.28
2023-05-12T04:04:48.760Z,66.16
2023-05-12T04:05:47.729Z,70.00
2023-05-12T04:06:47.715Z,67.99
2023-05-12T04:07:47.758Z,74.33
2023-05-12T04:08:48.708Z,69.77
2023-05-12T04:09:47.696Z,70.98
2023-05-12T04:10:48.732Z,69.36
2023-05-12T04:11:15.266Z,71.50
2023-05-12T04:12:48.683Z,70.50
2023-05-12T04:13:15.215Z,67.05
2023-05-12T04:14:47.740Z,74.52
2023-05-12T04:15:48.679Z,71.31
2023-05-12T04:16:15.230Z,71.66
2023-05-12T04:17:48.704Z,72.57
2023-05-12T04:18:15.977Z,70.37
2023-05-12T04:19:15.172Z,72.14
2023-05-12T04:20:15.205Z,75.04
2023-05-12T04:21:15.211Z,74.31
2023-05-12T04:22:15.191Z,71.60
2023-05-12T04:23:15.182Z,71.12
2023-05-12T04:24:15.177Z,72.45
2023-05-12T04:25:15.169Z,70.06
2023-05-12T04:26:15.153Z,71.86
2023-05-12T04:27:15.175Z,72.46
2023-05-12T04:28:15.175Z,75.66
2023-05-12T04:29:15.112Z,73.13
2023-05-12T04:30:15.109Z,74.19
2023-05-12T04:31:15.126Z,73.72
2023-05-12T04:32:15.182Z,75.60
2023-05-12T04:33:15.126Z,72.11
2023-05-12T04:34:15.146Z,71.20
2023-05-12T04:35:15.180Z,73.64
2023-05-12T04:36:15.068Z,73.38
2023-05-12T04:37:15.073Z,74.41
2023-05-12T04:38:15.060Z,73.74
2023-05-12T04:39:15.962Z,72.38
2023-05-12T04:40:15.045Z,72.41
2023-05-12T04:41:15.075Z,73.25
2023-05-12T04:42:15.040Z,77.56
2023-05-12T04:44:16.162Z,74.28
2023-05-12T04:45:15.028Z,72.17
2023-05-12T04:46:15.059Z,73.88
2023-05-12T04:47:15.116Z,75.34
2023-05-12T04:48:14.986Z,72.35
2023-05-12T04:49:14.995Z,72.14
2023-05-12T04:50:14.998Z,71.36
2023-05-12T04:51:15.172Z,74.90
2023-05-12T04:52:14.979Z,70.63
2023-05-12T04:53:14.939Z,74.65
2023-05-12T04:54:14.992Z,72.01
2023-05-12T04:55:14.984Z,74.44
2023-05-12T04:56:14.945Z,70.67
2023-05-12T04:57:14.989Z,72.20
2023-05-12T04:58:17.401Z,73.14
2023-05-12T04:59:14.915Z,69.41
2023-05-12T05:00:14.930Z,72.08
2023-05-12T05:01:15.004Z,68.04
2023-05-12T05:02:14.970Z,74.03
2023-05-12T05:03:14.949Z,72.10
2023-05-12T05:04:14.916Z,72.64
2023-05-12T05:05:14.873Z,73.43
2023-05-12T05:06:14.961Z,77.50
2023-05-12T05:07:14.917Z,74.19
2023-05-12T05:08:15.002Z,73.45
2023-05-12T05:09:14.853Z,71.22
2023-05-12T05:10:14.935Z,66.95
2023-05-12T05:11:14.953Z,69.27
2023-05-12T05:12:14.828Z,77.75
2023-05-12T05:13:14.837Z,76.75
2023-05-12T05:14:14.809Z,77.89
2023-05-12T05:15:14.812Z,74.71
2023-05-12T05:16:14.944Z,72.45
2023-05-12T05:17:14.807Z,73.73
2023-05-12T05:18:14.849Z,69.10
2023-05-12T05:19:20.905Z,74.52
2023-05-12T05:20:16.912Z,73.92
2023-05-12T05:21:14.845Z,68.87
2023-05-12T05:22:14.808Z,69.45
2023-05-12T05:23:14.773Z,73.53
2023-05-12T05:24:15.155Z,72.93
2023-05-12T05:25:14.780Z,74.41
2023-05-12T05:26:14.755Z,74.23
2023-05-12T05:27:15.490Z,76.58
2023-05-12T05:28:14.771Z,74.53
2023-05-12T05:29:14.754Z,74.27
2023-05-12T05:30:14.792Z,76.14
2023-05-12T05:31:14.767Z,74.92
2023-05-12T05:32:14.739Z,76.86
2023-05-12T05:33:14.747Z,71.83
2023-05-12T05:34:14.748Z,74.51
2023-05-12T05:35:14.722Z,75.78
2023-05-12T05:36:14.703Z,72.47
2023-05-12T05:37:14.711Z,74.11
2023-05-12T05:38:14.730Z,71.38
2023-05-12T05:39:14.696Z,73.36
2023-05-12T05:40:14.791Z,71.80
2023-05-12T05:41:14.672Z,78.58
2023-05-12T05:42:14.676Z,72.88
2023-05-12T05:43:14.674Z,76.19
2023-05-12T05:44:14.654Z,69.59
2023-05-12T05:45:14.675Z,73.23
2023-05-12T05:46:14.724Z,76.44
2023-05-12T05:47:14.766Z,77.18
2023-05-12T05:48:14.632Z,75.15
2023-05-12T05:49:14.666Z,74.73
2023-05-12T05:50:14.619Z,73.80
2023-05-12T05:51:14.620Z,72.67
2023-05-12T05:52:14.620Z,74.37
2023-05-12T05:53:14.631Z,72.42
2023-05-12T05:54:14.641Z,73.54
2023-05-12T05:55:14.601Z,73.67
2023-05-12T05:56:14.589Z,74.12
2023-05-12T05:57:14.583Z,70.38
2023-05-12T05:58:14.600Z,74.25
2023-05-12T05:59:14.554Z,70.46
2023-05-12T06:00:14.536Z,72.54
2023-05-12T06:01:14.594Z,72.78
2023-05-12T06:02:15.894Z,72.78
2023-05-12T06:03:15.588Z,73.89
2023-05-12T06:04:14.544Z,70.53
2023-05-12T06:05:14.645Z,73.35
2023-05-12T06:06:14.542Z,74.14
2023-05-12T06:07:14.519Z,71.36
2023-05-12T06:08:14.509Z,72.81
2023-05-12T06:09:14.532Z,71.14
2023-05-12T06:10:14.526Z,75.17
2023-05-12T06:11:15.976Z,69.99
2023-05-12T06:12:14.535Z,73.75
2023-05-12T06:13:14.480Z,72.57
2023-05-12T06:14:14.484Z,76.84
2023-05-12T06:15:14.469Z,72.87
2023-05-12T06:16:14.506Z,75.01
2023-05-12T06:17:14.472Z,76.32
2023-05-12T06:18:14.473Z,71.05
2023-05-12T06:19:14.492Z,73.28
2023-05-12T06:20:14.421Z,70.71
2023-05-12T06:21:14.421Z,75.82
2023-05-12T06:22:14.542Z,69.08
2023-05-12T06:23:14.408Z,74.58
2023-05-12T06:24:14.440Z,73.32
2023-05-12T06:25:14.400Z,75.82
2023-05-12T06:26:14.389Z,74.40
2023-05-12T06:27:14.395Z,73.66
2023-05-12T06:28:14.379Z,72.91
2023-05-12T06:29:14.383Z,73.49
2023-05-12T06:30:15.935Z,72.18
2023-05-12T06:31:15.388Z,73.41
2023-05-12T06:32:14.487Z,73.49
2023-05-12T06:33:14.372Z,72.83
2023-05-12T06:34:14.358Z,73.07
2023-05-12T06:35:14.334Z,72.63
2023-05-12T06:36:14.384Z,72.38
2023-05-12T06:37:14.344Z,73.13
2023-05-12T06:38:14.384Z,73.74
2023-05-12T06:39:14.319Z,74.92
2023-05-12T06:40:14.330Z,69.82
2023-05-12T06:41:15.363Z,74.38
2023-05-12T06:42:14.894Z,71.24
2023-05-12T06:43:14.385Z,75.46
2023-05-12T06:44:14.305Z,74.60
2023-05-12T06:45:14.309Z,74.36
2023-05-12T06:46:14.342Z,74.87
2023-05-12T06:47:14.307Z,72.97
2023-05-12T06:48:14.277Z,74.08
2023-05-12T06:49:14.280Z,73.00
2023-05-12T06:50:14.260Z,69.72
2023-05-12T06:51:14.286Z,70.94
2023-05-12T06:52:14.293Z,75.07
2023-05-12T06:53:14.254Z,71.39
2023-05-12T06:54:14.227Z,73.73
2023-05-12T06:55:14.231Z,75.56
2023-05-12T06:56:14.239Z,75.62
2023-05-12T06:57:14.238Z,74.34
2023-05-12T06:58:14.226Z,73.06
2023-05-12T06:59:14.239Z,72.75
2023-05-12T07:00:14.216Z,72.73
2023-05-12T07:01:14.209Z,73.64
2023-05-12T07:02:14.184Z,73.11
2023-05-12T07:03:14.284Z,69.78
2023-05-12T07:04:14.221Z,74.99
2023-05-12T07:05:14.162Z,71.42
2023-05-12T07:06:14.181Z,72.48
2023-05-12T07:07:14.167Z,72.12
2023-05-12T07:08:14.158Z,71.31
2023-05-12T07:09:14.169Z,73.97
2023-05-12T07:10:14.293Z,75.28
2023-05-12T07:11:14.126Z,71.60
2023-05-12T07:12:14.112Z,70.17
2023-05-12T07:13:14.162Z,77.05
2023-05-12T07:14:14.127Z,73.63
2023-05-12T07:15:14.095Z,72.47
2023-05-12T07:16:14.162Z,73.93
2023-05-12T07:17:14.092Z,71.79
2023-05-12T07:18:14.082Z,69.19
2023-05-12T07:19:14.144Z,72.04
2023-05-12T07:20:14.088Z,74.37
2023-05-12T07:21:14.120Z,72.61
2023-05-12T07:22:14.540Z,74.31
2023-05-12T07:23:14.099Z,74.41
2023-05-12T07:24:14.054Z,73.21
2023-05-12T07:25:14.087Z,71.25
2023-05-12T07:26:14.100Z,78.81
2023-05-12T07:27:14.054Z,81.89
2023-05-12T07:28:14.044Z,71.09
2023-05-12T07:29:14.209Z,74.14
2023-05-12T07:30:14.034Z,70.33
2023-05-12T07:31:14.056Z,74.65
2023-05-12T07:32:14.029Z,73.28
2023-05-12T07:33:14.011Z,70.64
2023-05-12T07:34:13.978Z,73.39
2023-05-12T07:35:14.958Z,76.68
2023-05-12T07:36:13.961Z,74.03
2023-05-12T07:37:14.001Z,73.02
2023-05-12T07:38:13.951Z,71.79
2023-05-12T07:39:14.011Z,72.66
2023-05-12T07:40:13.984Z,76.17
2023-05-12T07:41:13.946Z,72.75
2023-05-12T07:42:13.976Z,73.09
2023-05-12T07:43:13.973Z,69.75
2023-05-12T07:44:13.914Z,71.33
2023-05-12T07:45:13.925Z,71.62
2023-05-12T07:46:13.888Z,72.80
2023-05-12T07:47:13.929Z,71.48
2023-05-12T07:48:13.949Z,72.81
2023-05-12T07:49:13.894Z,73.52
2023-05-12T07:50:13.903Z,72.28
2023-05-12T07:51:13.888Z,69.50
2023-05-12T07:52:13.960Z,77.67
2023-05-12T07:53:13.886Z,82.57
2023-05-12T07:54:13.846Z,73.82
2023-05-12T07:55:13.858Z,73.21
2023-05-12T07:56:13.866Z,75.94
2023-05-12T07:57:13.861Z,76.35
2023-05-12T07:58:13.971Z,75.32
2023-05-12T07:59:13.809Z,71.26
2023-05-12T08:00:13.854Z,73.53
2023-05-12T08:01:13.839Z,78.40
2023-05-12T08:02:13.826Z,75.61
2023-05-12T08:03:13.869Z,74.83
2023-05-12T08:04:13.874Z,76.33
2023-05-12T08:05:13.837Z,75.86
2023-05-12T08:06:13.790Z,73.26
2023-05-12T08:07:13.776Z,75.99
2023-05-12T08:08:13.813Z,74.12
2023-05-12T08:09:13.759Z,70.98
2023-05-12T08:10:13.843Z,74.23
2023-05-12T08:11:13.755Z,73.63
2023-05-12T08:12:13.748Z,73.33
2023-05-12T08:13:13.736Z,72.64
2023-05-12T08:14:13.755Z,76.10
2023-05-12T08:15:13.720Z,74.88
2023-05-12T08:16:13.727Z,71.98
2023-05-12T08:17:13.793Z,74.25
2023-05-12T08:18:13.769Z,73.43
2023-05-12T08:19:13.821Z,73.88
2023-05-12T08:20:13.706Z,73.05
2023-05-12T08:21:13.692Z,74.00
2023-05-12T08:22:13.709Z,73.07
2023-05-12T08:23:13.680Z,73.33
2023-05-12T08:24:13.713Z,72.98
2023-05-12T08:25:15.429Z,70.55
2023-05-12T08:26:13.650Z,71.53
2023-05-12T08:27:13.656Z,73.89
2023-05-12T08:28:13.642Z,73.52
2023-05-12T08:29:13.827Z,73.82
2023-05-12T08:30:13.724Z,75.70
2023-05-12T08:31:14.705Z,74.09
2023-05-12T08:32:13.629Z,74.07
2023-05-12T08:33:13.609Z,72.88
2023-05-12T08:34:13.641Z,75.51
2023-05-12T08:35:13.696Z,72.16
2023-05-12T08:36:13.599Z,72.43
2023-05-12T08:37:13.602Z,75.21
2023-05-12T08:38:13.600Z,74.02
2023-05-12T08:39:13.588Z,71.65
2023-05-12T08:40:13.590Z,71.83
2023-05-12T08:41:13.634Z,78.46
2023-05-12T08:42:13.572Z,73.48
2023-05-12T08:43:13.552Z,73.42
2023-05-12T08:44:13.562Z,76.08
2023-05-12T08:45:13.618Z,70.76
2023-05-12T08:46:13.821Z,77.36
2023-05-12T08:47:13.534Z,74.36
2023-05-12T08:48:13.609Z,73.54
2023-05-12T08:49:13.512Z,73.18
2023-05-12T08:50:13.534Z,73.51
2023-05-12T08:51:13.529Z,78.86
2023-05-12T08:52:13.530Z,71.60
2023-05-12T08:53:13.557Z,74.83
2023-05-12T08:54:13.498Z,73.03
2023-05-12T08:55:13.560Z,74.11
2023-05-12T08:57:14.521Z,72.82
2023-05-12T08:58:13.559Z,72.74
2023-05-12T08:59:13.459Z,73.26
2023-05-12T09:00:13.457Z,75.60
2023-05-12T09:01:13.578Z,73.56
2023-05-12T09:02:13.722Z,75.35
2023-05-12T09:03:13.491Z,74.35
2023-05-12T09:04:13.498Z,74.87
2023-05-12T09:05:13.472Z,74.55
2023-05-12T09:06:13.470Z,73.43
2023-05-12T09:07:13.428Z,76.54
2023-05-12T09:08:13.437Z,74.85
2023-05-12T09:09:13.417Z,72.00
2023-05-12T09:10:22.477Z,74.91
2023-05-12T09:11:15.444Z,73.13
2023-05-12T09:12:14.955Z,74.79
2023-05-12T09:13:13.416Z,72.72
2023-05-12T09:14:13.391Z,72.80
2023-05-12T09:15:13.386Z,75.77
2023-05-12T09:16:13.418Z,74.87
2023-05-12T09:17:13.363Z,74.90
2023-05-12T09:18:13.384Z,74.87
2023-05-12T09:19:13.403Z,71.58
2023-05-12T09:20:27.919Z,72.62
2023-05-12T09:21:15.389Z,74.38
2023-05-12T09:22:13.376Z,73.78
2023-05-12T09:23:13.345Z,75.66
2023-05-12T09:24:13.472Z,74.14
2023-05-12T09:25:14.716Z,74.35
2023-05-12T09:26:14.329Z,72.91
2023-05-12T09:27:13.308Z,73.57
2023-05-12T09:28:13.410Z,72.99
2023-05-12T09:29:20.787Z,73.96
2023-05-12T09:30:15.325Z,74.87
2023-05-12T09:31:14.676Z,74.15
2023-05-12T09:32:14.288Z,75.51
2023-05-12T09:33:13.355Z,73.10
2023-05-12T09:34:13.262Z,74.44
2023-05-12T09:35:14.298Z,74.65
2023-05-12T09:36:13.281Z,75.51
2023-05-12T09:37:15.177Z,72.33
2023-05-12T09:38:14.248Z,73.95
2023-05-12T09:39:13.251Z,74.99
2023-05-12T09:40:13.238Z,73.39
2023-05-12T09:41:13.265Z,74.63
2023-05-12T09:42:13.254Z,74.44
2023-05-12T09:43:15.351Z,72.41
2023-05-12T09:44:14.216Z,72.24
2023-05-12T09:45:13.241Z,71.06
2023-05-12T09:46:13.252Z,74.90
2023-05-12T09:47:13.191Z,72.15
2023-05-12T09:48:13.213Z,73.42
2023-05-12T09:49:14.251Z,71.32
2023-05-12T09:50:13.445Z,72.07
2023-05-12T09:51:13.207Z,69.16
2023-05-12T09:52:13.170Z,75.31
2023-05-12T09:53:13.165Z,74.24
2023-05-12T09:54:13.165Z,74.53
2023-05-12T09:55:13.165Z,72.89
2023-05-12T09:56:13.145Z,72.06
2023-05-12T09:57:13.187Z,73.09
2023-05-12T09:58:13.194Z,71.60
2023-05-12T09:59:13.115Z,71.99
2023-05-12T10:00:21.501Z,68.96
2023-05-12T10:01:22.643Z,73.47
2023-05-12T10:02:15.179Z,81.21
2023-05-12T10:03:13.188Z,71.69
2023-05-12T10:04:13.109Z,74.29
2023-05-12T10:05:13.186Z,72.04
2023-05-12T10:06:13.186Z,72.78
2023-05-12T10:07:13.112Z,72.59
2023-05-12T10:08:13.073Z,73.75
2023-05-12T10:09:13.063Z,72.89
2023-05-12T10:10:13.043Z,71.72
2023-05-12T10:11:13.045Z,73.51
2023-05-12T10:12:13.058Z,71.73
2023-05-12T10:13:13.103Z,72.13
2023-05-12T10:14:13.127Z,72.96
2023-05-12T10:15:13.032Z,74.01
2023-05-12T10:16:13.136Z,74.97
2023-05-12T10:17:13.081Z,72.31
2023-05-12T10:18:13.036Z,71.39
2023-05-12T10:19:13.024Z,71.08
2023-05-12T10:20:13.006Z,72.57
2023-05-12T10:21:13.017Z,72.39
2023-05-12T10:22:13.065Z,72.85
2023-05-12T10:23:12.974Z,75.92
2023-05-12T10:24:12.989Z,73.53
2023-05-12T10:25:12.978Z,73.70
2023-05-12T10:26:12.945Z,76.09
2023-05-12T10:27:12.964Z,74.25
2023-05-12T10:28:12.941Z,73.89
2023-05-12T10:29:13.001Z,68.31
2023-05-12T10:30:12.939Z,70.06
2023-05-12T10:31:13.044Z,73.36
2023-05-12T10:32:12.930Z,76.10
2023-05-12T10:33:12.919Z,73.78
2023-05-12T10:34:12.923Z,71.76
2023-05-12T10:35:12.895Z,72.49
2023-05-12T10:36:12.916Z,73.06
2023-05-12T10:37:12.868Z,71.45
2023-05-12T10:38:12.962Z,72.54
2023-05-12T10:39:12.908Z,71.82
2023-05-12T10:40:12.876Z,72.31
2023-05-12T10:41:12.870Z,72.18
2023-05-12T10:42:12.882Z,74.74
2023-05-12T10:43:13.066Z,73.41
2023-05-12T10:44:12.865Z,77.61
2023-05-12T10:45:12.824Z,73.43
2023-05-12T10:46:12.878Z,72.90
2023-05-12T10:47:13.249Z,72.45
2023-05-12T10:48:13.852Z,77.19
2023-05-12T10:49:12.841Z,74.51
2023-05-12T10:50:12.808Z,74.69
2023-05-12T10:51:12.801Z,73.01
2023-05-12T10:52:12.848Z,73.98
2023-05-12T10:53:12.777Z,75.40
2023-05-12T10:54:12.790Z,72.56
2023-05-12T10:55:12.866Z,74.55
2023-05-12T10:56:13.012Z,72.98
2023-05-12T10:57:15.003Z,72.16
2023-05-12T10:58:15.096Z,72.03
2023-05-12T10:59:13.142Z,71.15
2023-05-12T11:00:13.102Z,72.68
2023-05-12T11:01:13.179Z,72.72
2023-05-12T11:02:13.639Z,70.87
2023-05-12T11:03:13.967Z,73.32
2023-05-12T11:04:13.172Z,74.40
2023-05-12T11:05:13.349Z,72.45
2023-05-12T11:06:14.114Z,70.73
2023-05-12T11:07:14.163Z,73.28
2023-05-12T11:08:14.272Z,73.51
2023-05-12T11:09:13.914Z,75.33
2023-05-12T11:11:13.168Z,73.11
2023-05-12T11:12:12.658Z,74.31
2023-05-12T11:13:12.642Z,73.81
2023-05-12T11:14:12.683Z,71.19
2023-05-12T11:15:12.722Z,74.87
2023-05-12T11:16:12.733Z,73.42
2023-05-12T11:17:12.682Z,73.78
2023-05-12T11:18:12.695Z,74.64
2023-05-12T11:19:12.863Z,70.40
2023-05-12T11:20:12.647Z,74.05
2023-05-12T11:21:12.619Z,70.49
2023-05-12T11:22:12.694Z,75.12
2023-05-12T11:23:12.577Z,74.07
2023-05-12T11:24:13.538Z,74.41
2023-05-12T11:25:12.693Z,74.12
2023-05-12T11:26:12.588Z,72.74
2023-05-12T11:27:12.570Z,73.28
2023-05-12T11:28:12.567Z,73.91
2023-05-12T11:29:12.546Z,71.88
2023-05-12T11:30:12.560Z,73.26
2023-05-12T11:31:12.630Z,73.03
2023-05-12T11:32:12.601Z,75.62
2023-05-12T11:33:12.570Z,72.73
2023-05-12T11:34:13.603Z,73.48
2023-05-12T11:35:13.513Z,71.01
2023-05-12T11:36:12.538Z,77.81
2023-05-12T11:37:12.495Z,73.88
2023-05-12T11:38:12.500Z,73.92
2023-05-12T11:39:12.475Z,73.76
2023-05-12T11:40:12.483Z,73.12
2023-05-12T11:41:12.501Z,75.32
2023-05-12T11:42:13.921Z,74.87
2023-05-12T11:43:13.517Z,73.03
2023-05-12T11:44:12.478Z,71.56
2023-05-12T11:45:12.474Z,72.83
2023-05-12T11:46:12.460Z,75.17
2023-05-12T11:47:12.441Z,73.33
2023-05-12T11:48:13.500Z,73.45
2023-05-12T11:49:13.441Z,73.80
2023-05-12T11:50:12.499Z,72.86
2023-05-12T11:51:12.430Z,74.07
2023-05-12T11:52:12.395Z,71.56
2023-05-12T11:53:13.123Z,73.19
2023-05-12T11:54:12.403Z,73.99
2023-05-12T11:55:12.383Z,73.76
2023-05-12T11:56:12.401Z,72.11
2023-05-12T11:57:12.400Z,74.46
2023-05-12T11:58:12.428Z,71.01
2023-05-12T11:59:12.413Z,72.62
2023-05-12T12:00:12.400Z,74.83
2023-05-12T12:01:12.368Z,73.71
2023-05-12T12:02:12.398Z,74.13
2023-05-12T12:03:12.450Z,71.17
2023-05-12T12:04:12.449Z,74.24
2023-05-12T12:05:12.340Z,75.24
2023-05-12T12:06:12.318Z,73.61
2023-05-12T12:07:12.337Z,74.27
2023-05-12T12:08:12.338Z,73.75
2023-05-12T12:09:12.345Z,72.80
2023-05-12T12:10:12.429Z,75.68
2023-05-12T12:11:12.425Z,71.53
2023-05-12T12:12:12.312Z,74.16
2023-05-12T12:13:12.317Z,76.83
2023-05-12T12:14:12.343Z,77.25
2023-05-12T12:15:12.295Z,74.59
2023-05-12T12:16:14.749Z,73.39
2023-05-12T12:17:13.288Z,73.13
2023-05-12T12:18:12.398Z,76.18
2023-05-12T12:19:12.361Z,72.87
2023-05-12T12:20:12.370Z,74.52
2023-05-12T12:21:12.260Z,72.43
2023-05-12T12:22:12.268Z,74.46
2023-05-12T12:23:12.236Z,73.26
2023-05-12T12:24:12.258Z,70.92
2023-05-12T12:25:12.222Z,73.77
2023-05-12T12:26:12.238Z,74.05
2023-05-12T12:27:12.207Z,72.78
2023-05-12T12:28:12.196Z,73.54
2023-05-12T12:29:12.199Z,73.72
2023-05-12T12:30:12.190Z,71.17
2023-05-12T12:31:12.233Z,76.83
2023-05-12T12:32:12.170Z,74.70
2023-05-12T12:33:12.239Z,71.58
2023-05-12T12:34:12.200Z,76.02
2023-05-12T12:35:12.187Z,72.80
2023-05-12T12:36:12.190Z,73.14
2023-05-12T12:37:12.145Z,76.97
2023-05-12T12:38:12.136Z,76.11
2023-05-12T12:39:12.161Z,69.97
2023-05-12T12:40:12.131Z,74.51
2023-05-12T12:41:12.147Z,72.48
2023-05-12T12:42:12.168Z,71.94
2023-05-12T12:43:12.109Z,73.91
2023-05-12T12:44:14.199Z,74.51
2023-05-12T12:45:12.109Z,73.50
2023-05-12T12:46:12.112Z,75.02
2023-05-12T12:47:12.222Z,74.11
2023-05-12T12:48:12.097Z,71.36
2023-05-12T12:49:12.074Z,74.20
2023-05-12T12:50:12.066Z,74.82
2023-05-12T12:51:12.104Z,72.70
2023-05-12T12:52:12.104Z,70.53
2023-05-12T12:53:12.077Z,67.78
2023-05-12T12:54:12.074Z,73.23
2023-05-12T12:55:12.048Z,72.54